Time;durP1;ratioP1;P1;durP2;ratioP2;P2;SDS_P1;SDS_P2;PMS_P1;PMS_P2;Temp;Humidity;BMP_temperature;BMP_pressure;BME280_temperature;BME280_humidity;BME280_pressure;Samples;Min_cycle;Max_cycle;Signal;HPM_P1;HPM_P2
2022/09/05 00:00:18;;;;;;;0.40;0.40;;;;;;;;;;5023098;28;20053;-77
2022/09/05 00:03:00;;;;;;;0.50;0.50;;;;;;;;;;5024696;28;20045;-76
2022/09/05 00:05:32;;;;;;;0.50;0.50;;;;;;;;;;5022555;28;20060;-77
2022/09/05 00:08:18;;;;;;;0.40;0.40;;;;;;;;;;5022620;28;20930;-76
2022/09/05 00:10:48;;;;;;;0.60;0.40;;;;;;;;;;5023929;28;20053;-76
2022/09/05 00:13:17;;;;;;;0.40;0.40;;;;;;;;;;5022454;28;20054;-77
2022/09/05 00:15:55;;;;;;;0.60;0.60;;;;;;;;;;5023239;28;20160;-76
2022/09/05 00:18:21;;;;;;;0.70;0.70;;;;;;;;;;5024208;28;20048;-77
2022/09/05 00:20:47;;;;;;;0.60;0.60;;;;;;;;;;5022684;28;20041;-77
2022/09/05 00:23:19;;;;;;;0.57;0.57;;;;;;;;;;5022814;28;20037;-77
2022/09/05 00:25:51;;;;;;;0.55;0.55;;;;;;;;;;5024170;28;20037;-77
2022/09/05 00:28:23;;;;;;;0.50;0.50;;;;;;;;;;5021895;28;20045;-77
2022/09/05 00:30:49;;;;;;;;;;;;;;;;;;5024817;28;20045;-77
2022/09/05 00:33:18;;;;;;;0.75;0.65;;;;;;;;;;5021914;28;19939;-77
2022/09/05 00:35:47;;;;;;;0.93;0.73;;;;;;;;;;5022439;28;20571;-77
2022/09/05 00:38:17;;;;;;;0.68;0.65;;;;;;;;;;5023831;28;20048;-77
2022/09/05 00:40:57;;;;;;;0.60;0.57;;;;;;;;;;5020371;28;20703;-77
2022/09/05 00:43:27;;;;;;;0.60;0.60;;;;;;;;;;5023104;28;20523;-77
2022/09/05 00:45:58;;;;;;;1.13;0.90;;;;;;;;;;5022022;28;20396;-77
2022/09/05 00:48:29;;;;;;;0.70;0.60;;;;;;;;;;5022845;28;20049;-77
2022/09/05 00:51:02;;;;;;;0.70;0.70;;;;;;;;;;5021690;28;20041;-77
2022/09/05 00:53:47;;;;;;;1.13;0.63;;;;;;;;;;5022274;28;20199;-77
2022/09/05 00:56:32;;;;;;;2.47;0.80;;;;;;;;;;5023097;28;20054;-76
2022/09/05 00:59:07;;;;;;;1.05;0.80;;;;;;;;;;5021201;28;20517;-76
2022/09/05 01:01:47;;;;;;;0.70;0.60;;;;;;;;;;5020372;28;20041;-77
2022/09/05 01:04:39;;;;;;;0.95;0.75;;;;;;;;;;5021628;28;20083;-77
2022/09/05 01:07:05;;;;;;;;;;;;;;;;;;5006836;28;20054;-77
2022/09/05 01:09:43;;;;;;;1.05;0.77;;;;;;;;;;5021754;28;19921;-76
2022/09/05 01:12:22;;;;;;;0.80;0.80;;;;;;;;;;5022341;28;20045;-77
2022/09/05 01:15:03;;;;;;;0.90;0.77;;;;;;;;;;5024039;28;20371;-77
2022/09/05 01:17:45;;;;;;;0.73;0.73;;;;;;;;;;5023627;28;20061;-77
2022/09/05 01:20:14;;;;;;;0.70;0.70;;;;;;;;;;5024211;28;20672;-77
2022/09/05 01:22:47;;;;;;;0.80;0.80;;;;;;;;;;5024645;28;20187;-76
2022/09/05 01:25:32;;;;;;;0.88;0.70;;;;;;;;;;5025201;28;20400;-77
2022/09/05 01:28:15;;;;;;;0.80;0.80;;;;;;;;;;5023749;28;20050;-77
2022/09/05 01:30:55;;;;;;;0.75;0.75;;;;;;;;;;5024743;28;20068;-77
2022/09/05 01:33:27;;;;;;;1.10;0.85;;;;;;;;;;5023860;28;20538;-77
2022/09/05 01:35:52;;;;;;;;;;;;;;;;;;5023973;28;20046;-77
2022/09/05 01:38:26;;;;;;;0.70;0.68;;;;;;;;;;5022772;28;19931;-77
2022/09/05 01:40:51;;;;;;;1.10;1.00;;;;;;;;;;5023827;28;20396;-77
2022/09/05 01:43:30;;;;;;;1.90;1.20;;;;;;;;;;5025235;28;20048;-77
2022/09/05 01:45:59;;;;;;;1.08;0.98;;;;;;;;;;5024999;28;20046;-77
2022/09/05 01:48:43;;;;;;;0.80;0.80;;;;;;;;;;5027238;28;20042;-76
2022/09/05 01:51:21;;;;;;;0.70;0.70;;;;;;;;;;5028263;28;20073;-77
2022/09/05 01:53:52;;;;;;;1.10;1.00;;;;;;;;;;5029216;28;20491;-77
2022/09/05 01:56:26;;;;;;;0.70;0.70;;;;;;;;;;5028741;28;20510;-77
2022/09/05 01:59:04;;;;;;;0.80;0.80;;;;;;;;;;5027709;28;20557;-76
2022/09/05 02:01:49;;;;;;;0.95;0.90;;;;;;;;;;5028462;28;20044;-76
2022/09/05 02:04:42;;;;;;;0.70;0.70;;;;;;;;;;5026995;28;20057;-76
2022/09/05 02:07:29;;;;;;;0.80;0.80;;;;;;;;;;5027522;28;20067;-77
2022/09/05 02:10:04;;;;;;;0.60;0.60;;;;;;;;;;5028198;28;20049;-77
2022/09/05 02:12:34;;;;;;;0.80;0.80;;;;;;;;;;5027515;28;20483;-77
2022/09/05 02:15:03;;;;;;;1.15;0.80;;;;;;;;;;5027896;28;20098;-76
2022/09/05 02:17:45;;;;;;;0.85;0.85;;;;;;;;;;5026962;28;20081;-76
2022/09/05 02:20:11;;;;;;;1.10;1.00;;;;;;;;;;5027247;28;20092;-76
2022/09/05 02:22:48;;;;;;;1.20;1.10;;;;;;;;;;5028802;28;20073;-77
2022/09/05 02:25:19;;;;;;;1.88;0.82;;;;;;;;;;5028020;28;20088;-77
2022/09/05 02:27:48;;;;;;;1.10;0.90;;;;;;;;;;5027366;28;20128;-77
2022/09/05 02:30:19;;;;;;;1.20;1.10;;;;;;;;;;5026873;28;20096;-77
2022/09/05 02:32:57;;;;;;;0.90;0.90;;;;;;;;;;5026506;28;20045;-76
2022/09/05 02:35:50;;;;;;;0.90;0.90;;;;;;;;;;5027862;28;20049;-77
2022/09/05 02:38:21;;;;;;;1.73;1.00;;;;;;;;;;5004744;28;20058;-77
2022/09/05 02:41:22;;;;;;;0.95;0.95;;;;;;;;;;5026771;28;20069;-77
2022/09/05 02:44:26;;;;;;;1.10;1.00;;;;;;;;;;4966086;28;20504;-77
2022/09/05 02:46:58;;;;;;;1.20;0.95;;;;;;;;;;4929549;29;20513;-77
2022/09/05 02:49:39;;;;;;;1.30;1.20;;;;;;;;;;4947062;29;20062;-77
2022/09/05 02:52:07;;;;;;;1.00;0.90;;;;;;;;;;4996251;28;20110;-77
2022/09/05 02:54:36;;;;;;;1.60;1.10;;;;;;;;;;5025889;28;20099;-76
2022/09/05 02:57:08;;;;;;;1.27;1.17;;;;;;;;;;5027139;28;20037;-77
2022/09/05 02:59:34;;;;;;;;;;;;;;;;;;5028248;28;20053;-77
2022/09/05 03:02:03;;;;;;;1.35;1.25;;;;;;;;;;5025269;28;20326;-77
2022/09/05 03:04:44;;;;;;;1.27;1.17;;;;;;;;;;5027137;28;20068;-77
2022/09/05 03:07:29;;;;;;;0.90;0.90;;;;;;;;;;5027455;28;20064;-77
2022/09/05 03:10:14;;;;;;;1.85;1.08;;;;;;;;;;5026447;28;20245;-76
2022/09/05 03:12:40;;;;;;;0.80;0.80;;;;;;;;;;5027318;28;20087;-77
2022/09/05 03:15:18;;;;;;;1.05;1.02;;;;;;;;;;5026968;28;20429;-76
2022/09/05 03:17:44;;;;;;;0.90;0.90;;;;;;;;;;5027106;28;20491;-77
2022/09/05 03:20:37;;;;;;;1.20;1.13;;;;;;;;;;5026665;28;20053;-76
2022/09/05 03:23:27;;;;;;;2.60;1.00;;;;;;;;;;5026182;28;20049;-76
2022/09/05 03:26:04;;;;;;;1.55;1.45;;;;;;;;;;5019026;28;20123;-77
2022/09/05 03:28:59;;;;;;;1.20;1.10;;;;;;;;;;5025814;28;20415;-77
2022/09/05 03:31:39;;;;;;;1.95;0.90;;;;;;;;;;5026965;28;20103;-76
2022/09/05 03:34:08;;;;;;;1.05;0.98;;;;;;;;;;5026881;28;20306;-77
2022/09/05 03:36:53;;;;;;;0.82;0.82;;;;;;;;;;5024972;28;20049;-77
2022/09/05 03:39:21;;;;;;;1.52;1.25;;;;;;;;;;5026750;28;20057;-77
2022/09/05 03:41:53;;;;;;;0.95;0.95;;;;;;;;;;5026425;28;20044;-77
2022/09/05 03:44:28;;;;;;;2.33;1.40;;;;;;;;;;5024905;28;20217;-77
2022/09/05 03:47:00;;;;;;;1.90;1.40;;;;;;;;;;5026346;28;20053;-77
2022/09/05 03:49:35;;;;;;;1.15;1.08;;;;;;;;;;5026396;28;20128;-77
2022/09/05 03:52:20;;;;;;;1.50;1.40;;;;;;;;;;5026035;28;20053;-77
2022/09/05 03:55:11;;;;;;;1.25;1.10;;;;;;;;;;5026049;28;20091;-77
2022/09/05 03:57:52;;;;;;;1.30;1.20;;;;;;;;;;5024711;28;20148;-77
2022/09/05 04:00:20;;;;;;;1.15;1.05;;;;;;;;;;5026000;28;20112;-77
2022/09/05 04:03:25;;;;;;;0.88;0.88;;;;;;;;;;5025780;28;20516;-77
2022/09/05 04:05:51;;;;;;;1.25;1.15;;;;;;;;;;4947825;28;20101;-76
2022/09/05 04:08:36;;;;;;;1.10;1.00;;;;;;;;;;4964718;28;20050;-77
2022/09/05 04:11:05;;;;;;;1.05;0.98;;;;;;;;;;4994049;28;20049;-77
2022/09/05 04:13:52;;;;;;;1.33;1.23;;;;;;;;;;5022029;28;20152;-76
2022/09/05 04:16:18;;;;;;;1.40;1.30;;;;;;;;;;4985106;28;20180;-77
2022/09/05 04:18:53;;;;;;;1.27;1.17;;;;;;;;;;5020446;28;20518;-77
2022/09/05 04:21:27;;;;;;;1.10;1.00;;;;;;;;;;5034653;28;20136;-77
2022/09/05 04:24:00;;;;;;;0.90;0.90;;;;;;;;;;5023559;28;20052;-77
2022/09/05 04:26:41;;;;;;;1.20;1.10;;;;;;;;;;5025071;28;20045;-77
2022/09/05 04:29:13;;;;;;;1.92;1.23;;;;;;;;;;5024777;28;20484;-77
2022/09/05 04:31:55;;;;;;;1.20;1.10;;;;;;;;;;5025428;28;20407;-77
2022/09/05 04:34:21;;;;;;;1.60;1.50;;;;;;;;;;5023598;28;20049;-77
2022/09/05 04:36:58;;;;;;;1.52;1.42;;;;;;;;;;5013637;28;20072;-77
2022/09/05 04:39:25;;;;;;;1.10;1.00;;;;;;;;;;5023468;28;20053;-77
2022/09/05 04:42:04;;;;;;;1.27;1.20;;;;;;;;;;5025167;28;20045;-77
2022/09/05 04:44:29;;;;;;;2.15;1.77;;;;;;;;;;5024528;28;20439;-77
2022/09/05 04:47:07;;;;;;;1.73;1.63;;;;;;;;;;5022704;28;20049;-77
2022/09/05 04:49:37;;;;;;;1.38;1.27;;;;;;;;;;5025494;28;20045;-77
2022/09/05 04:52:03;;;;;;;2.22;1.75;;;;;;;;;;5024752;28;20574;-77
2022/09/05 04:54:49;;;;;;;1.77;1.65;;;;;;;;;;5023975;28;20128;-77
2022/09/05 04:57:29;;;;;;;1.63;1.52;;;;;;;;;;5024259;28;20057;-77
2022/09/05 04:59:55;;;;;;;1.92;1.83;;;;;;;;;;5025084;28;20056;-78
2022/09/05 05:02:21;;;;;;;1.60;1.50;;;;;;;;;;5023848;28;20042;-77
2022/09/05 05:04:48;;;;;;;1.70;1.60;;;;;;;;;;5025730;28;20061;-77
2022/09/05 05:07:26;;;;;;;1.42;1.33;;;;;;;;;;5026423;28;20054;-77
2022/09/05 05:09:55;;;;;;;1.48;1.38;;;;;;;;;;5023966;28;20069;-77
2022/09/05 05:12:26;;;;;;;1.30;1.20;;;;;;;;;;5024387;28;20084;-77
2022/09/05 05:14:59;;;;;;;1.30;1.20;;;;;;;;;;5024234;28;20500;-77
2022/09/05 05:17:31;;;;;;;1.10;1.00;;;;;;;;;;5025126;28;20045;-77
2022/09/05 05:20:08;;;;;;;2.05;1.33;;;;;;;;;;5023726;28;20049;-77
2022/09/05 05:22:35;;;;;;;1.83;1.73;;;;;;;;;;5025411;28;20075;-78
2022/09/05 05:25:04;;;;;;;1.20;1.10;;;;;;;;;;5028719;28;20129;-78
2022/09/05 05:27:37;;;;;;;1.20;1.10;;;;;;;;;;5028981;28;20124;-78
2022/09/05 05:30:05;;;;;;;1.13;1.10;;;;;;;;;;5026770;28;20041;-78
2022/09/05 05:32:31;;;;;;;1.67;1.58;;;;;;;;;;5028309;28;20057;-78
2022/09/05 05:35:01;;;;;;;1.90;1.63;;;;;;;;;;5028660;28;20095;-76
2022/09/05 05:37:31;;;;;;;1.70;1.60;;;;;;;;;;5028005;28;20380;-76
2022/09/05 05:40:07;;;;;;;1.60;1.50;;;;;;;;;;5028447;28;20117;-77
2022/09/05 05:42:34;;;;;;;1.30;1.15;;;;;;;;;;5028113;28;20490;-77
2022/09/05 05:45:00;;;;;;;1.30;1.20;;;;;;;;;;5027506;28;20396;-77
2022/09/05 05:47:31;;;;;;;1.52;1.40;;;;;;;;;;5015117;28;20500;-77
2022/09/05 05:49:57;;;;;;;1.50;1.40;;;;;;;;;;5018935;28;20077;-77
2022/09/05 05:52:34;;;;;;;1.60;1.50;;;;;;;;;;5028035;28;20451;-77
2022/09/05 05:55:05;;;;;;;2.00;1.73;;;;;;;;;;5028194;28;20103;-77
2022/09/05 05:57:50;;;;;;;2.80;1.73;;;;;;;;;;5025238;28;20045;-76
2022/09/05 06:00:31;;;;;;;1.70;1.60;;;;;;;;;;5027363;28;20132;-77
2022/09/05 06:03:01;;;;;;;1.70;1.60;;;;;;;;;;5027889;28;20045;-76
2022/09/05 06:05:33;;;;;;;1.70;1.60;;;;;;;;;;5027608;28;20510;-76
2022/09/05 06:08:05;;;;;;;1.30;1.20;;;;;;;;;;5028169;28;20328;-76
2022/09/05 06:10:31;;;;;;;1.98;1.35;;;;;;;;;;5026682;28;20081;-76
2022/09/05 06:13:10;;;;;;;1.83;1.73;;;;;;;;;;5026212;28;20085;-76
2022/09/05 06:15:45;;;;;;;1.73;1.63;;;;;;;;;;5027244;28;20143;-76
2022/09/05 06:18:34;;;;;;;1.30;1.23;;;;;;;;;;5027608;28;20045;-77
2022/09/05 06:21:08;;;;;;;1.30;1.20;;;;;;;;;;5016844;28;20046;-75
2022/09/05 06:24:03;;;;;;;1.77;1.23;;;;;;;;;;5027979;28;20115;-76
2022/09/05 06:26:29;;;;;;;1.67;1.33;;;;;;;;;;4970886;28;20054;-76
2022/09/05 06:29:14;;;;;;;1.40;1.30;;;;;;;;;;5020986;28;20107;-76
2022/09/05 06:31:59;;;;;;;1.58;1.48;;;;;;;;;;5023699;28;20045;-76
2022/09/05 06:34:43;;;;;;;2.38;2.20;;;;;;;;;;5020495;28;20041;-75
2022/09/05 06:37:28;;;;;;;2.17;2.08;;;;;;;;;;5024768;28;20049;-76
2022/09/05 06:40:03;;;;;;;1.70;1.60;;;;;;;;;;5021219;28;20049;-75
2022/09/05 06:42:49;;;;;;;2.30;2.10;;;;;;;;;;5016246;28;20711;-75
2022/09/05 06:45:31;;;;;;;2.88;2.40;;;;;;;;;;4994375;28;20411;-75
2022/09/05 06:48:20;;;;;;;1.95;1.83;;;;;;;;;;5021683;28;20069;-75
2022/09/05 06:51:05;;;;;;;2.25;2.08;;;;;;;;;;5015380;28;20049;-74
2022/09/05 06:53:50;;;;;;;2.22;2.00;;;;;;;;;;5023472;28;20045;-74
2022/09/05 06:56:25;;;;;;;2.70;2.50;;;;;;;;;;5023525;28;20674;-74
2022/09/05 06:59:10;;;;;;;2.90;2.53;;;;;;;;;;5023938;28;20480;-74
2022/09/05 07:01:44;;;;;;;2.20;1.98;;;;;;;;;;5018685;28;20476;-74
2022/09/05 07:04:40;;;;;;;1.75;1.65;;;;;;;;;;5025793;28;20053;-76
2022/09/05 07:07:23;;;;;;;2.50;2.30;;;;;;;;;;5012955;28;20061;-76
2022/09/05 07:09:58;;;;;;;2.05;1.88;;;;;;;;;;5025824;28;20053;-76
2022/09/05 07:12:37;;;;;;;1.95;1.73;;;;;;;;;;5027037;28;20710;-76
2022/09/05 07:15:22;;;;;;;5.55;2.47;;;;;;;;;;5026352;28;20053;-76
2022/09/05 07:18:07;;;;;;;2.40;2.20;;;;;;;;;;5025779;28;20049;-76
2022/09/05 07:20:39;;;;;;;2.05;1.85;;;;;;;;;;5026125;28;20049;-66
2022/09/05 07:23:20;;;;;;;1.90;1.80;;;;;;;;;;5026012;28;20088;-67
2022/09/05 07:25:49;;;;;;;1.70;1.53;;;;;;;;;;5008959;28;20077;-66
2022/09/05 07:28:18;;;;;;;2.10;1.90;;;;;;;;;;5023038;28;20287;-68
2022/09/05 07:30:49;;;;;;;1.90;1.80;;;;;;;;;;5026591;28;20100;-74
2022/09/05 07:33:24;;;;;;;2.45;2.05;;;;;;;;;;5027053;28;20083;-78
2022/09/05 07:35:51;;;;;;;4.13;2.47;;;;;;;;;;5025424;28;20057;-77
2022/09/05 07:38:31;;;;;;;1.85;1.50;;;;;;;;;;5025889;28;20491;-78
2022/09/05 07:41:00;;;;;;;2.10;1.50;;;;;;;;;;5024829;28;20485;-78
2022/09/05 07:43:38;;;;;;;2.28;1.75;;;;;;;;;;5025683;28;20045;-76
2022/09/05 07:46:16;;;;;;;2.65;2.45;;;;;;;;;;5006567;28;20046;-76
2022/09/05 07:48:59;;;;;;;2.53;2.33;;;;;;;;;;5021886;28;20049;-68
2022/09/05 07:51:27;;;;;;;2.67;2.13;;;;;;;;;;5006062;28;20523;-74
2022/09/05 07:53:55;;;;;;;2.17;2.00;;;;;;;;;;5023283;28;20491;-74
2022/09/05 07:56:41;;;;;;;2.42;2.20;;;;;;;;;;5012768;28;20051;-74
2022/09/05 07:59:09;;;;;;;5.28;3.40;;;;;;;;;;5020716;28;20087;-76
2022/09/05 08:01:37;;;;;;;3.10;2.50;;;;;;;;;;5023899;28;20065;-74
2022/09/05 08:04:03;;;;;;;2.47;2.25;;;;;;;;;;5013883;28;20053;-75
2022/09/05 08:06:29;;;;;;;2.25;2.05;;;;;;;;;;5014950;28;20049;-74
2022/09/05 08:09:24;;;;;;;4.00;3.03;;;;;;;;;;5023689;28;20064;-76
2022/09/05 08:11:52;;;;;;;4.57;2.70;;;;;;;;;;5006300;28;20049;-76
2022/09/05 08:14:41;;;;;;;4.43;2.33;;;;;;;;;;5019951;28;20034;-76
2022/09/05 08:17:10;;;;;;;2.25;2.13;;;;;;;;;;5023667;28;20124;-76
2022/09/05 08:19:36;;;;;;;2.60;2.40;;;;;;;;;;5024480;28;20045;-76
2022/09/05 08:22:02;;;;;;;2.28;2.17;;;;;;;;;;5024031;28;20053;-76
2022/09/05 08:24:40;;;;;;;2.97;2.70;;;;;;;;;;5022480;28;20053;-75
2022/09/05 08:27:18;;;;;;;2.97;2.78;;;;;;;;;;5021941;28;20045;-76
2022/09/05 08:29:52;;;;;;;1.90;1.80;;;;;;;;;;5023400;28;20045;-76
2022/09/05 08:32:21;;;;;;;2.45;2.25;;;;;;;;;;5023804;28;20045;-75
2022/09/05 08:34:52;;;;;;;1.83;1.73;;;;;;;;;;5023810;28;20174;-76
2022/09/05 08:37:20;;;;;;;1.50;1.40;;;;;;;;;;5023734;28;20049;-76
2022/09/05 08:39:47;;;;;;;1.73;1.63;;;;;;;;;;5022365;28;20049;-76
2022/09/05 08:42:35;;;;;;;3.33;2.60;;;;;;;;;;5024891;28;20038;-76
2022/09/05 08:45:00;;;;;;;2.00;1.80;;;;;;;;;;5015995;28;20561;-76
2022/09/05 08:47:48;;;;;;;2.05;1.95;;;;;;;;;;5009903;28;20064;-76
2022/09/05 08:50:22;;;;;;;2.00;1.80;;;;;;;;;;5006668;28;21775;-75
2022/09/05 08:52:57;;;;;;;1.83;1.60;;;;;;;;;;5012685;28;20128;-77
2022/09/05 08:55:37;;;;;;;2.88;1.60;;;;;;;;;;5015531;28;20049;-78
2022/09/05 08:58:22;;;;;;;1.75;1.65;;;;;;;;;;5022801;28;20100;-77
2022/09/05 09:00:54;;;;;;;1.70;1.60;;;;;;;;;;5021778;28;20045;-77
2022/09/05 09:03:23;;;;;;;1.48;1.38;;;;;;;;;;5022247;28;20061;-77
2022/09/05 09:05:58;;;;;;;1.77;1.50;;;;;;;;;;5022856;28;20056;-77
2022/09/05 09:08:46;;;;;;;1.45;1.35;;;;;;;;;;5019349;28;20069;-78
2022/09/05 09:11:22;;;;;;;1.67;1.58;;;;;;;;;;5022743;28;20049;-75
2022/09/05 09:13:53;;;;;;;1.60;1.50;;;;;;;;;;5022565;28;20076;-77
2022/09/05 09:16:19;;;;;;;;;;;;;;;;;;5024828;28;20500;-77
2022/09/05 09:18:45;;;;;;;1.70;1.60;;;;;;;;;;5023968;28;19925;-76
2022/09/05 09:21:31;;;;;;;2.17;1.70;;;;;;;;;;5022646;28;20060;-76
2022/09/05 09:24:09;;;;;;;2.35;1.85;;;;;;;;;;4987151;28;20558;-76
2022/09/05 09:26:41;;;;;;;1.58;1.48;;;;;;;;;;5023636;28;20204;-75
2022/09/05 09:29:08;;;;;;;1.73;1.63;;;;;;;;;;5023149;28;20053;-75
2022/09/05 09:31:53;;;;;;;1.52;1.35;;;;;;;;;;5024029;28;20045;-76
2022/09/05 09:34:24;;;;;;;1.60;1.40;;;;;;;;;;5024756;28;20450;-75
2022/09/05 09:36:50;;;;;;;;;;;;;;;;;;5022591;28;20053;-75
2022/09/05 09:39:35;;;;;;;1.38;1.20;;;;;;;;;;5022758;28;19928;-76
2022/09/05 09:42:00;;;;;;;1.30;1.20;;;;;;;;;;5016800;28;20052;-75
2022/09/05 09:44:26;;;;;;;1.98;1.15;;;;;;;;;;5022842;28;20057;-75
2022/09/05 09:46:53;;;;;;;1.10;1.10;;;;;;;;;;5020815;28;20042;-76
2022/09/05 09:49:55;;;;;;;1.58;1.45;;;;;;;;;;5016713;28;20099;-77
2022/09/05 09:52:49;;;;;;;1.33;1.23;;;;;;;;;;4981864;28;20253;-77
2022/09/05 09:55:17;;;;;;;1.05;1.05;;;;;;;;;;5018298;28;20056;-76
2022/09/05 09:57:50;;;;;;;1.35;1.25;;;;;;;;;;5013406;28;20484;-76
2022/09/05 10:00:21;;;;;;;1.60;1.48;;;;;;;;;;5011771;28;20066;-75
2022/09/05 10:02:47;;;;;;;;;;;;;;;;;;5004954;28;20054;-74
2022/09/05 10:05:41;;;;;;;3.88;1.92;;;;;;;;;;5017287;28;20705;-72
2022/09/05 10:08:13;;;;;;;4.13;1.83;;;;;;;;;;5023525;28;20061;-75
2022/09/05 10:10:39;;;;;;;2.50;1.63;;;;;;;;;;5023687;28;20050;-75
2022/09/05 10:13:25;;;;;;;1.65;1.55;;;;;;;;;;5023224;28;20121;-75
2022/09/05 10:16:10;;;;;;;1.48;1.38;;;;;;;;;;5015342;28;20137;-75
2022/09/05 10:18:41;;;;;;;3.28;1.83;;;;;;;;;;5008519;28;20570;-74
2022/09/05 10:21:13;;;;;;;2.25;1.50;;;;;;;;;;5020673;28;20038;-75
2022/09/05 10:23:39;;;;;;;1.60;1.50;;;;;;;;;;5025466;28;20061;-73
2022/09/05 10:26:24;;;;;;;1.23;1.13;;;;;;;;;;5025061;28;20048;-75
2022/09/05 10:29:12;;;;;;;1.27;1.02;;;;;;;;;;5026607;28;20134;-74
2022/09/05 10:31:47;;;;;;;1.35;1.25;;;;;;;;;;5022778;28;20468;-74
2022/09/05 10:34:19;;;;;;;2.33;1.80;;;;;;;;;;5025371;28;20516;-74
2022/09/05 10:36:50;;;;;;;3.05;1.85;;;;;;;;;;5037004;28;20045;-79
2022/09/05 10:39:17;;;;;;;2.20;1.83;;;;;;;;;;5024208;28;20049;-75
2022/09/05 10:41:49;;;;;;;1.50;1.33;;;;;;;;;;5024966;28;20330;-71
2022/09/05 10:44:23;;;;;;;1.48;1.38;;;;;;;;;;5017950;28;20045;-75
2022/09/05 10:47:03;;;;;;;1.33;1.23;;;;;;;;;;5025777;28;20053;-75
2022/09/05 10:49:33;;;;;;;1.48;1.23;;;;;;;;;;5024482;28;20049;-75
2022/09/05 10:52:08;;;;;;;1.23;1.13;;;;;;;;;;5024634;28;20480;-74
2022/09/05 10:54:57;;;;;;;1.25;1.00;;;;;;;;;;5025572;28;20103;-75
2022/09/05 10:57:35;;;;;;;1.02;1.00;;;;;;;;;;5018768;28;20049;-75
2022/09/05 11:00:04;;;;;;;1.33;1.23;;;;;;;;;;5024387;28;20049;-75
2022/09/05 11:02:30;;;;;;;1.20;1.10;;;;;;;;;;5024746;28;20057;-75
2022/09/05 11:05:11;;;;;;;2.65;1.60;;;;;;;;;;5025139;28;20057;-75
2022/09/05 11:07:57;;;;;;;0.93;0.90;;;;;;;;;;5027009;28;20135;-75
2022/09/05 11:10:30;;;;;;;1.10;1.00;;;;;;;;;;5022380;28;20099;-77
2022/09/05 11:13:00;;;;;;;0.70;0.70;;;;;;;;;;5009016;28;20046;-77
2022/09/05 11:15:30;;;;;;;0.85;0.85;;;;;;;;;;5016261;28;20110;-77
2022/09/05 11:18:02;;;;;;;1.10;1.00;;;;;;;;;;5025917;28;20060;-77
2022/09/05 11:20:41;;;;;;;1.60;1.20;;;;;;;;;;5022218;28;20570;-77
2022/09/05 11:23:14;;;;;;;0.80;0.80;;;;;;;;;;5025239;28;20140;-77
2022/09/05 11:25:40;;;;;;;1.02;0.93;;;;;;;;;;5024930;28;20045;-77
2022/09/05 11:28:12;;;;;;;0.77;0.77;;;;;;;;;;5025796;28;20041;-77
2022/09/05 11:30:42;;;;;;;1.25;1.02;;;;;;;;;;5025615;28;20124;-76
2022/09/05 11:33:17;;;;;;;1.25;1.10;;;;;;;;;;5026533;28;20045;-78
2022/09/05 11:35:46;;;;;;;1.05;1.05;;;;;;;;;;5024330;28;20464;-77
2022/09/05 11:38:36;;;;;;;1.10;1.00;;;;;;;;;;5026075;28;20049;-77
2022/09/05 11:41:21;;;;;;;1.27;1.17;;;;;;;;;;5026197;28;20273;-77
2022/09/05 11:44:07;;;;;;;1.25;1.15;;;;;;;;;;5022822;28;20053;-78
2022/09/05 11:46:56;;;;;;;1.00;1.00;;;;;;;;;;5017687;28;20080;-77
2022/09/05 11:49:31;;;;;;;1.48;1.38;;;;;;;;;;5020392;28;20046;-78
2022/09/05 11:52:03;;;;;;;1.60;1.50;;;;;;;;;;5023532;28;20594;-78
2022/09/05 11:54:48;;;;;;;0.93;0.93;;;;;;;;;;5025971;28;20057;-77
2022/09/05 11:57:33;;;;;;;2.42;1.23;;;;;;;;;;5019364;28;20045;-78
2022/09/05 12:00:08;;;;;;;1.20;1.10;;;;;;;;;;5022839;28;20041;-77
2022/09/05 12:02:53;;;;;;;0.93;0.93;;;;;;;;;;5025342;28;20053;-77
2022/09/05 12:05:36;;;;;;;1.75;1.30;;;;;;;;;;5024205;28;20053;-77
2022/09/05 12:08:12;;;;;;;1.30;1.20;;;;;;;;;;5020065;28;20085;-78
2022/09/05 12:10:41;;;;;;;1.50;0.95;;;;;;;;;;5023714;28;20053;-78
2022/09/05 12:13:30;;;;;;;1.83;1.38;;;;;;;;;;5025617;28;20103;-78
2022/09/05 12:15:58;;;;;;;1.95;1.20;;;;;;;;;;5023565;28;20049;-77
2022/09/05 12:18:30;;;;;;;9.93;1.38;;;;;;;;;;5023702;28;20041;-78
2022/09/05 12:21:12;;;;;;;1.05;0.93;;;;;;;;;;5023171;28;20091;-78
2022/09/05 12:23:59;;;;;;;1.13;1.10;;;;;;;;;;5022935;28;20184;-78
2022/09/05 12:26:34;;;;;;;1.67;0.88;;;;;;;;;;5024943;28;20128;-78
2022/09/05 12:29:04;;;;;;;1.13;1.02;;;;;;;;;;5015509;28;20275;-78
2022/09/05 12:31:45;;;;;;;3.45;1.10;;;;;;;;;;5023329;28;20037;-81
2022/09/05 12:34:17;;;;;;;0.90;0.90;;;;;;;;;;5023447;28;20487;-80
2022/09/05 12:36:48;;;;;;;0.80;0.80;;;;;;;;;;5022845;28;20543;-81
2022/09/05 12:39:17;;;;;;;1.23;1.13;;;;;;;;;;5018502;28;20080;-80
2022/09/05 12:42:06;;;;;;;1.98;0.90;;;;;;;;;;5023537;28;20049;-79
2022/09/05 12:44:35;;;;;;;1.38;1.00;;;;;;;;;;5023816;28;20502;-80
2022/09/05 12:47:05;;;;;;;1.42;0.93;;;;;;;;;;5024386;28;20037;-80
2022/09/05 12:49:56;;;;;;;0.82;0.80;;;;;;;;;;5022253;28;20128;-79
2022/09/05 12:52:22;;;;;;;;;;;;;;;;;;5007202;28;20053;-79
2022/09/05 12:54:53;;;;;;;1.30;1.20;;;;;;;;;;5015414;28;19931;-80
2022/09/05 12:57:27;;;;;;;1.30;1.20;;;;;;;;;;5014114;28;20506;-81
2022/09/05 12:59:56;;;;;;;3.03;1.70;;;;;;;;;;5012363;28;20049;-80
2022/09/05 13:02:25;;;;;;;2.13;1.70;;;;;;;;;;5015435;28;20042;-80
2022/09/05 13:04:57;;;;;;;1.35;1.25;;;;;;;;;;5012550;28;20120;-80
2022/09/05 13:07:31;;;;;;;1.50;1.40;;;;;;;;;;5013145;28;20069;-80
2022/09/05 13:09:59;;;;;;;1.27;1.17;;;;;;;;;;5014635;28;20080;-80
2022/09/05 13:12:31;;;;;;;0.98;0.98;;;;;;;;;;5014696;28;21360;-80
2022/09/05 13:14:57;;;;;;;;;;;;;;;;;;5014211;28;20049;-79
2022/09/05 13:17:29;;;;;;;0.90;0.90;;;;;;;;;;5012285;28;19929;-79
2022/09/05 13:19:57;;;;;;;0.90;0.90;;;;;;;;;;5018635;28;20051;-80
2022/09/05 13:22:24;;;;;;;0.85;0.85;;;;;;;;;;5024074;28;20072;-78
2022/09/05 13:24:59;;;;;;;1.30;1.20;;;;;;;;;;5018627;28;20381;-77
2022/09/05 13:27:28;;;;;;;2.55;1.60;;;;;;;;;;5012143;28;20063;-78
2022/09/05 13:30:01;;;;;;;1.98;1.35;;;;;;;;;;5015183;28;20124;-78
2022/09/05 13:32:30;;;;;;;2.33;1.52;;;;;;;;;;5017725;28;20152;-78
2022/09/05 13:35:03;;;;;;;1.88;1.50;;;;;;;;;;5016933;28;20057;-78
2022/09/05 13:37:32;;;;;;;1.60;1.50;;;;;;;;;;5012068;28;20057;-78
2022/09/05 13:40:01;;;;;;;1.25;1.15;;;;;;;;;;5004996;28;20045;-78
2022/09/05 13:42:32;;;;;;;1.40;1.30;;;;;;;;;;5021947;28;20051;-78
2022/09/05 13:44:59;;;;;;;1.10;1.10;;;;;;;;;;5026810;28;20068;-78
2022/09/05 13:47:44;;;;;;;1.00;1.00;;;;;;;;;;5018214;28;20264;-77
2022/09/05 13:50:25;;;;;;;0.98;0.98;;;;;;;;;;5021490;28;20671;-78
2022/09/05 13:52:51;;;;;;;1.48;1.10;;;;;;;;;;5037032;28;20061;-77
2022/09/05 13:55:20;;;;;;;1.63;1.52;;;;;;;;;;5021761;28;20048;-77
2022/09/05 13:57:54;;;;;;;1.85;1.48;;;;;;;;;;5024107;28;20053;-77
2022/09/05 14:00:20;;;;;;;1.45;1.35;;;;;;;;;;5025623;28;20053;-77
2022/09/05 14:03:07;;;;;;;1.45;1.35;;;;;;;;;;5019003;28;20076;-76
2022/09/05 14:05:36;;;;;;;1.23;1.20;;;;;;;;;;5026444;28;20076;-76
2022/09/05 14:08:17;;;;;;;1.67;1.30;;;;;;;;;;5019630;28;20427;-76
2022/09/05 14:10:53;;;;;;;1.35;1.25;;;;;;;;;;5021973;28;20049;-76
2022/09/05 14:13:23;;;;;;;2.53;1.30;;;;;;;;;;5019253;28;20182;-76
2022/09/05 14:15:53;;;;;;;1.90;1.45;;;;;;;;;;5018710;28;20057;-77
2022/09/05 14:18:31;;;;;;;1.08;1.08;;;;;;;;;;5026675;28;20503;-74
2022/09/05 14:21:16;;;;;;;1.23;1.20;;;;;;;;;;5026466;28;20048;-75
2022/09/05 14:23:52;;;;;;;1.13;1.02;;;;;;;;;;5027417;28;20064;-75
2022/09/05 14:26:27;;;;;;;1.20;1.10;;;;;;;;;;5021206;28;20442;-77
2022/09/05 14:29:15;;;;;;;0.95;0.95;;;;;;;;;;5017586;28;20048;-78
2022/09/05 14:32:13;;;;;;;0.93;0.93;;;;;;;;;;5020196;28;20140;-77
2022/09/05 14:34:58;;;;;;;0.95;0.95;;;;;;;;;;4993535;28;20068;-76
2022/09/05 14:37:43;;;;;;;1.65;1.02;;;;;;;;;;5022939;28;20049;-78
2022/09/05 14:40:09;;;;;;;1.08;0.98;;;;;;;;;;5016625;28;20053;-77
2022/09/05 14:42:35;;;;;;;0.90;0.90;;;;;;;;;;5017179;28;20050;-77
2022/09/05 14:45:21;;;;;;;1.00;1.00;;;;;;;;;;5016585;28;20049;-77
2022/09/05 14:48:02;;;;;;;1.42;0.90;;;;;;;;;;5025120;28;20140;-74
2022/09/05 14:50:38;;;;;;;1.10;1.00;;;;;;;;;;5025189;28;20050;-67
2022/09/05 14:53:05;;;;;;;1.40;1.30;;;;;;;;;;5014969;28;20064;-67
2022/09/05 14:55:31;;;;;;;0.98;0.98;;;;;;;;;;5021732;28;20053;-69
2022/09/05 14:57:58;;;;;;;0.80;0.80;;;;;;;;;;5024516;28;20049;-75
2022/09/05 15:00:25;;;;;;;0.85;0.85;;;;;;;;;;5020037;28;20050;-76
2022/09/05 15:02:55;;;;;;;0.60;0.60;;;;;;;;;;5022090;28;20465;-74
2022/09/05 15:05:27;;;;;;;1.02;1.02;;;;;;;;;;5023082;28;20049;-77
2022/09/05 15:08:01;;;;;;;1.70;1.10;;;;;;;;;;5025183;28;20053;-76
2022/09/05 15:10:55;;;;;;;0.70;0.70;;;;;;;;;;5026317;28;20053;-75
2022/09/05 15:13:25;;;;;;;0.73;0.73;;;;;;;;;;5021845;28;20060;-76
2022/09/05 15:15:56;;;;;;;0.70;0.70;;;;;;;;;;5019814;28;20042;-77
2022/09/05 15:18:24;;;;;;;0.70;0.70;;;;;;;;;;5017581;28;20559;-76
2022/09/05 15:20:51;;;;;;;1.15;0.77;;;;;;;;;;5013261;28;20680;-76
2022/09/05 15:23:23;;;;;;;0.68;0.68;;;;;;;;;;5009071;28;20385;-76
2022/09/05 15:26:00;;;;;;;0.50;0.50;;;;;;;;;;5014789;28;20112;-76
2022/09/05 15:28:38;;;;;;;0.60;0.60;;;;;;;;;;5015816;28;20590;-77
2022/09/05 15:31:06;;;;;;;1.48;0.75;;;;;;;;;;5016127;28;20728;-76
2022/09/05 15:33:33;;;;;;;0.95;0.80;;;;;;;;;;5017800;28;20050;-76